createdAt,value
2018-09-13T00:02:15.516Z,99.90
2018-09-13T00:07:08.825Z,99.90
2018-09-13T00:12:02.166Z,99.90
2018-09-13T00:16:55.379Z,99.90
2018-09-13T00:21:48.580Z,99.90
2018-09-13T00:26:41.819Z,99.90
2018-09-13T00:31:35.044Z,99.90
2018-09-13T00:36:28.260Z,99.90
2018-09-13T00:41:21.505Z,99.90
2018-09-13T00:46:14.768Z,99.90
2018-09-13T00:51:08.208Z,99.90
2018-09-13T00:56:01.428Z,99.90
2018-09-13T01:00:54.702Z,99.90
2018-09-13T01:05:47.931Z,99.90
2018-09-13T01:10:41.196Z,99.90
2018-09-13T01:15:34.442Z,99.90
2018-09-13T01:20:27.771Z,99.90
2018-09-13T01:25:21.035Z,99.90
2018-09-13T01:30:14.248Z,99.90
2018-09-13T01:35:07.511Z,99.90
2018-09-13T01:40:00.749Z,99.90
2018-09-13T01:44:53.980Z,99.90
2018-09-13T01:49:47.216Z,99.90
2018-09-13T01:54:40.403Z,99.90
2018-09-13T01:59:33.634Z,99.90
2018-09-13T02:04:26.886Z,99.90
2018-09-13T02:09:20.075Z,99.90
2018-09-13T02:14:13.317Z,99.90
2018-09-13T02:19:06.827Z,99.90
2018-09-13T02:24:00.078Z,99.90
2018-09-13T02:28:54.283Z,99.90
2018-09-13T02:33:47.518Z,99.90
2018-09-13T02:38:40.811Z,99.90
2018-09-13T02:43:34.067Z,99.90
2018-09-13T02:48:27.296Z,99.90
2018-09-13T02:53:20.786Z,99.90
2018-09-13T02:58:13.984Z,99.90
2018-09-13T03:03:07.275Z,99.90
2018-09-13T03:08:00.511Z,99.90
2018-09-13T03:12:53.726Z,99.90
2018-09-13T03:17:47.040Z,99.90
2018-09-13T03:22:40.272Z,99.90
2018-09-13T03:27:34.737Z,99.90
2018-09-13T03:32:28.722Z,99.90
2018-09-13T03:37:21.953Z,99.90
2018-09-13T03:42:15.198Z,99.90
2018-09-13T03:47:08.471Z,99.90
2018-09-13T03:52:01.701Z,99.90
2018-09-13T03:56:54.902Z,99.90
2018-09-13T04:01:48.136Z,99.90
2018-09-13T04:06:41.400Z,99.90
2018-09-13T04:11:34.649Z,99.90
2018-09-13T04:16:27.865Z,99.90
2018-09-13T04:21:21.092Z,99.90
2018-09-13T04:26:14.339Z,99.90
2018-09-13T04:31:07.573Z,99.90
2018-09-13T04:36:00.786Z,99.90
2018-09-13T04:40:54.720Z,99.90
2018-09-13T04:45:48.031Z,99.90
2018-09-13T04:50:41.237Z,99.90
2018-09-13T04:55:34.460Z,99.90
2018-09-13T05:00:27.685Z,99.90
2018-09-13T05:05:20.963Z,99.90
2018-09-13T05:10:14.188Z,99.90
2018-09-13T05:15:08.104Z,99.90
2018-09-13T05:20:01.447Z,99.90
2018-09-13T05:24:54.639Z,99.90
2018-09-13T05:29:47.883Z,99.90
2018-09-13T05:34:41.145Z,99.90
2018-09-13T05:39:34.403Z,99.90
2018-09-13T05:44:27.593Z,99.90
2018-09-13T05:49:20.848Z,99.90
2018-09-13T05:54:14.049Z,99.90
2018-09-13T05:59:07.412Z,99.90
2018-09-13T06:04:00.627Z,99.90
2018-09-13T06:08:53.873Z,99.90
2018-09-13T06:13:47.100Z,99.90
2018-09-13T06:18:40.375Z,99.90
2018-09-13T06:23:33.699Z,99.90
2018-09-13T06:28:26.919Z,99.90
2018-09-13T06:33:20.150Z,99.90
2018-09-13T06:38:13.395Z,99.90
2018-09-13T06:43:06.652Z,99.90
2018-09-13T06:47:59.915Z,99.90
2018-09-13T06:52:53.173Z,99.90
2018-09-13T06:57:46.417Z,99.90
2018-09-13T07:02:39.641Z,99.90
2018-09-13T07:07:32.941Z,99.90
2018-09-13T07:12:26.158Z,99.90
2018-09-13T07:17:19.377Z,99.90
2018-09-13T07:22:12.617Z,99.90
2018-09-13T07:27:05.951Z,99.90
2018-09-13T07:32:00.172Z,99.90
2018-09-13T07:36:53.526Z,99.90
2018-09-13T07:41:46.708Z,99.90
2018-09-13T07:46:40.518Z,99.90
2018-09-13T07:51:33.792Z,99.90
2018-09-13T07:56:27.140Z,99.90
2018-09-13T08:01:20.357Z,99.90
2018-09-13T08:06:14.231Z,99.90
2018-09-13T08:11:07.488Z,99.90
2018-09-13T08:16:00.889Z,99.90
2018-09-13T08:20:54.070Z,99.90
2018-09-13T08:25:47.636Z,99.90
2018-09-13T08:30:40.891Z,99.90
2018-09-13T08:35:34.122Z,99.90
2018-09-13T08:40:27.744Z,99.90
2018-09-13T08:45:20.994Z,99.90
2018-09-13T08:50:14.229Z,99.90
2018-09-13T08:55:09.455Z,99.90
2018-09-13T09:00:03.215Z,99.90
2018-09-13T09:04:56.469Z,99.90
2018-09-13T09:09:49.697Z,99.90
2018-09-13T09:14:42.947Z,99.90
2018-09-13T09:19:36.255Z,99.90
2018-09-13T09:24:29.482Z,99.90
2018-09-13T09:29:22.745Z,99.90
2018-09-13T09:34:15.987Z,99.90
2018-09-13T09:39:12.359Z,99.90
2018-09-13T09:44:05.805Z,99.90
2018-09-13T09:48:59.054Z,99.90
2018-09-13T09:53:52.246Z,99.90
2018-09-13T09:58:45.477Z,99.90
2018-09-13T10:03:38.770Z,99.90
2018-09-13T10:08:32.040Z,99.90
2018-09-13T10:13:25.298Z,99.90
2018-09-13T10:18:24.241Z,99.90
2018-09-13T10:23:23.127Z,99.90
2018-09-13T10:28:22.015Z,99.90
2018-09-13T10:33:20.970Z,99.90
2018-09-13T10:38:19.803Z,99.90
2018-09-13T10:43:18.571Z,99.90
2018-09-13T10:48:17.609Z,99.90
2018-09-13T10:53:18.143Z,99.90
2018-09-13T10:58:11.405Z,99.90
2018-09-13T11:03:04.709Z,99.90
2018-09-13T11:07:57.941Z,99.90
2018-09-13T11:12:56.944Z,99.90
2018-09-13T11:17:50.189Z,99.90
2018-09-13T11:22:43.523Z,99.90
2018-09-13T11:27:36.874Z,99.90
2018-09-13T11:32:30.109Z,99.90
2018-09-13T11:37:23.346Z,99.90
2018-09-13T11:42:16.591Z,99.90
2018-09-13T11:47:09.837Z,99.90
2018-09-13T11:52:03.056Z,99.90
2018-09-13T11:56:56.311Z,99.90
2018-09-13T12:01:49.576Z,99.90
2018-09-13T12:06:43.349Z,99.90
2018-09-13T12:11:36.670Z,99.90
2018-09-13T12:16:29.963Z,99.70
2018-09-13T12:21:23.198Z,99.90
2018-09-13T12:26:16.484Z,99.90
2018-09-13T12:31:09.731Z,99.90
2018-09-13T12:36:03.011Z,99.90
2018-09-13T12:40:56.482Z,99.90
2018-09-13T12:45:49.999Z,99.90
2018-09-13T12:50:44.407Z,99.90
2018-09-13T12:55:43.280Z,99.90
2018-09-13T13:00:36.553Z,99.30
2018-09-13T13:05:29.825Z,99.10
2018-09-13T13:10:23.064Z,98.80
2018-09-13T13:15:16.338Z,98.40
2018-09-13T13:20:09.605Z,97.80
2018-09-13T13:25:02.880Z,97.70
2018-09-13T13:29:56.091Z,98.30
2018-09-13T13:34:49.389Z,97.30
2018-09-13T13:39:42.654Z,96.60
2018-09-13T13:44:36.006Z,96.50
2018-09-13T13:49:29.221Z,96.30
2018-09-13T13:54:22.840Z,96.20
2018-09-13T13:59:16.078Z,96.70
2018-09-13T14:04:09.332Z,96.30
2018-09-13T14:09:02.657Z,97.00
2018-09-13T14:13:55.896Z,96.60
2018-09-13T14:18:49.174Z,97.20
2018-09-13T14:23:42.474Z,97.40
2018-09-13T14:28:35.640Z,96.20
2018-09-13T14:33:28.832Z,95.40
2018-09-13T14:38:22.081Z,95.70
2018-09-13T14:43:15.308Z,96.40
2018-09-13T14:48:08.545Z,95.80
2018-09-13T14:53:01.773Z,95.10
2018-09-13T14:57:55.014Z,95.20
2018-09-13T15:02:48.295Z,96.10
2018-09-13T15:07:41.579Z,95.90
2018-09-13T15:12:34.874Z,95.60
2018-09-13T15:17:28.168Z,95.20
2018-09-13T15:22:21.416Z,94.60
2018-09-13T15:27:14.645Z,95.30
2018-09-13T15:32:07.916Z,95.30
2018-09-13T15:37:01.212Z,95.20
2018-09-13T15:41:54.431Z,95.20
2018-09-13T15:46:47.675Z,95.20
2018-09-13T15:51:40.898Z,94.70
2018-09-13T15:56:34.773Z,95.20
2018-09-13T16:01:28.023Z,95.10
2018-09-13T16:06:21.260Z,95.50
2018-09-13T16:11:14.516Z,96.10
2018-09-13T16:16:08.106Z,96.10
2018-09-13T16:21:01.337Z,96.40
2018-09-13T16:25:54.595Z,96.50
2018-09-13T16:30:47.826Z,96.50
2018-09-13T16:35:47.178Z,96.70
2018-09-13T16:40:46.300Z,96.70
2018-09-13T16:45:40.258Z,96.90
2018-09-13T16:50:33.492Z,97.00
2018-09-13T16:55:26.859Z,97.40
2018-09-13T17:00:22.025Z,97.40
2018-09-13T17:05:15.329Z,97.40
2018-09-13T17:10:08.906Z,97.70
2018-09-13T17:15:02.186Z,98.00
2018-09-13T17:19:55.451Z,98.20
2018-09-13T17:24:48.683Z,98.30
2018-09-13T17:29:41.947Z,98.80
2018-09-13T17:34:35.166Z,99.00
2018-09-13T17:39:28.366Z,99.10
2018-09-13T17:44:21.649Z,99.30
2018-09-13T17:49:14.871Z,99.60
2018-09-13T17:54:08.107Z,99.70
2018-09-13T17:59:01.383Z,99.90
2018-09-13T18:03:54.821Z,99.90
2018-09-13T18:08:48.164Z,99.90
2018-09-13T18:13:41.403Z,99.90
2018-09-13T18:18:34.691Z,99.90
2018-09-13T18:23:27.948Z,99.90
2018-09-13T18:28:21.163Z,99.90
2018-09-13T18:33:14.605Z,99.90
2018-09-13T18:38:08.046Z,99.90
2018-09-13T18:43:01.257Z,99.90
2018-09-13T18:47:54.568Z,99.90
2018-09-13T18:52:47.884Z,99.90
2018-09-13T18:57:41.147Z,99.90
2018-09-13T19:02:34.407Z,99.90
2018-09-13T19:07:27.739Z,99.90
2018-09-13T19:12:20.975Z,99.90
2018-09-13T19:17:14.225Z,99.90
2018-09-13T19:22:07.488Z,99.90
2018-09-13T19:27:00.707Z,99.90
2018-09-13T19:31:53.961Z,99.90
2018-09-13T19:36:47.236Z,99.90
2018-09-13T19:41:40.897Z,99.90
2018-09-13T19:46:34.216Z,99.90
2018-09-13T19:51:27.428Z,99.90
2018-09-13T19:56:20.709Z,99.90
2018-09-13T20:01:13.988Z,99.90
2018-09-13T20:06:07.370Z,99.90
2018-09-13T20:11:00.621Z,99.90
2018-09-13T20:15:53.885Z,99.90
2018-09-13T20:20:48.390Z,99.90
2018-09-13T20:25:41.730Z,99.90
2018-09-13T20:30:34.992Z,99.90
2018-09-13T20:35:28.339Z,99.90
2018-09-13T20:40:21.536Z,99.90
2018-09-13T20:45:14.845Z,99.90
2018-09-13T20:50:08.133Z,99.90
2018-09-13T20:55:01.377Z,99.90
2018-09-13T20:59:54.603Z,99.90
2018-09-13T21:04:47.933Z,99.90
2018-09-13T21:09:41.153Z,99.90
2018-09-13T21:14:34.412Z,99.90
2018-09-13T21:19:27.681Z,99.90
2018-09-13T21:24:20.962Z,99.90
2018-09-13T21:29:14.259Z,99.90
2018-09-13T21:34:07.480Z,99.90
2018-09-13T21:39:00.777Z,99.90
2018-09-13T21:43:54.035Z,99.90
2018-09-13T21:48:47.235Z,99.90
2018-09-13T21:53:40.495Z,99.90
2018-09-13T21:58:33.737Z,99.90
2018-09-13T22:03:27.137Z,99.90
2018-09-13T22:08:20.386Z,99.90
2018-09-13T22:13:13.624Z,99.90
2018-09-13T22:18:06.905Z,99.90
2018-09-13T22:23:00.142Z,99.90
2018-09-13T22:27:53.391Z,99.90
2018-09-13T22:32:46.647Z,99.90
2018-09-13T22:37:39.893Z,99.90
2018-09-13T22:42:34.276Z,99.90
2018-09-13T22:47:27.726Z,99.90
2018-09-13T22:52:20.972Z,99.90
2018-09-13T22:57:14.259Z,99.90
2018-09-13T23:02:07.503Z,99.90
2018-09-13T23:07:00.750Z,99.90
2018-09-13T23:11:54.021Z,99.90
2018-09-13T23:16:49.579Z,99.90
2018-09-13T23:21:40.557Z,99.90
2018-09-13T23:26:34.421Z,99.90
2018-09-13T23:31:27.657Z,99.90
2018-09-13T23:36:21.115Z,99.90
2018-09-13T23:41:14.337Z,99.90
2018-09-13T23:46:07.605Z,99.90
2018-09-13T23:51:00.876Z,99.90
2018-09-13T23:55:54.091Z,99.90
